sensor_id;sensor_type;location;lat;lon;timestamp;P1;durP1;ratioP1;P2;durP2;ratioP2
66425;SDS011;53237;46.158;14.604;2023-01-01T00:02:04;43.67;;;34.22;;
66425;SDS011;53237;46.158;14.604;2023-01-01T00:04:31;41.53;;;32.83;;
66425;SDS011;53237;46.158;14.604;2023-01-01T00:06:58;32.92;;;27.67;;
66425;SDS011;53237;46.158;14.604;2023-01-01T00:09:24;59.72;;;41.05;;
66425;SDS011;53237;46.158;14.604;2023-01-01T00:12:09;57.75;;;41.78;;
66425;SDS011;53237;46.158;14.604;2023-01-01T00:14:35;44.55;;;35.90;;
66425;SDS011;53237;46.158;14.604;2023-01-01T00:17:03;52.03;;;42.38;;
66425;SDS011;53237;46.158;14.604;2023-01-01T00:19:29;54.08;;;40.65;;
66425;SDS011;53237;46.158;14.604;2023-01-01T00:21:55;42.03;;;32.50;;
66425;SDS011;53237;46.158;14.604;2023-01-01T00:24:21;48.65;;;34.72;;
66425;SDS011;53237;46.158;14.604;2023-01-01T00:26:47;47.00;;;35.80;;
66425;SDS011;53237;46.158;14.604;2023-01-01T00:29:13;48.92;;;39.17;;
66425;SDS011;53237;46.158;14.604;2023-01-01T00:31:39;39.58;;;32.05;;
66425;SDS011;53237;46.158;14.604;2023-01-01T00:34:05;48.83;;;35.75;;
66425;SDS011;53237;46.158;14.604;2023-01-01T00:36:31;37.00;;;29.45;;
66425;SDS011;53237;46.158;14.604;2023-01-01T00:38:57;35.20;;;28.48;;
66425;SDS011;53237;46.158;14.604;2023-01-01T00:41:23;38.75;;;29.80;;
66425;SDS011;53237;46.158;14.604;2023-01-01T00:43:49;38.25;;;30.40;;
66425;SDS011;53237;46.158;14.604;2023-01-01T00:46:15;35.25;;;27.63;;
66425;SDS011;53237;46.158;14.604;2023-01-01T00:48:41;37.45;;;29.40;;
66425;SDS011;53237;46.158;14.604;2023-01-01T00:51:07;32.20;;;26.00;;
66425;SDS011;53237;46.158;14.604;2023-01-01T00:53:33;32.83;;;25.20;;
66425;SDS011;53237;46.158;14.604;2023-01-01T00:55:59;36.15;;;29.90;;
66425;SDS011;53237;46.158;14.604;2023-01-01T00:58:25;27.35;;;21.85;;
66425;SDS011;53237;46.158;14.604;2023-01-01T01:00:52;28.60;;;23.67;;
66425;SDS011;53237;46.158;14.604;2023-01-01T01:03:18;29.23;;;23.38;;
66425;SDS011;53237;46.158;14.604;2023-01-01T01:08:30;25.70;;;20.52;;
66425;SDS011;53237;46.158;14.604;2023-01-01T01:11:04;27.13;;;20.73;;
66425;SDS011;53237;46.158;14.604;2023-01-01T01:13:30;32.13;;;23.35;;
66425;SDS011;53237;46.158;14.604;2023-01-01T01:15:56;35.80;;;26.05;;
66425;SDS011;53237;46.158;14.604;2023-01-01T01:18:22;32.40;;;25.17;;
66425;SDS011;53237;46.158;14.604;2023-01-01T01:20:51;36.22;;;25.98;;
66425;SDS011;53237;46.158;14.604;2023-01-01T01:23:18;46.22;;;31.45;;
66425;SDS011;53237;46.158;14.604;2023-01-01T01:25:45;32.10;;;23.33;;
66425;SDS011;53237;46.158;14.604;2023-01-01T01:28:11;41.25;;;29.38;;
66425;SDS011;53237;46.158;14.604;2023-01-01T01:30:37;35.03;;;23.92;;
66425;SDS011;53237;46.158;14.604;2023-01-01T01:33:03;33.88;;;23.83;;
66425;SDS011;53237;46.158;14.604;2023-01-01T01:35:29;31.27;;;22.75;;
66425;SDS011;53237;46.158;14.604;2023-01-01T01:37:57;30.40;;;21.92;;
66425;SDS011;53237;46.158;14.604;2023-01-01T01:40:22;29.65;;;21.83;;
66425;SDS011;53237;46.158;14.604;2023-01-01T01:42:49;35.53;;;19.27;;
66425;SDS011;53237;46.158;14.604;2023-01-01T01:45:15;26.50;;;19.10;;
66425;SDS011;53237;46.158;14.604;2023-01-01T01:47:48;27.23;;;19.05;;
66425;SDS011;53237;46.158;14.604;2023-01-01T01:52:57;26.23;;;19.67;;
66425;SDS011;53237;46.158;14.604;2023-01-01T01:55:25;23.92;;;18.13;;
66425;SDS011;53237;46.158;14.604;2023-01-01T01:57:52;21.23;;;17.05;;
66425;SDS011;53237;46.158;14.604;2023-01-01T02:00:18;20.63;;;16.08;;
66425;SDS011;53237;46.158;14.604;2023-01-01T02:02:47;23.73;;;18.20;;
66425;SDS011;53237;46.158;14.604;2023-01-01T02:05:16;25.55;;;18.92;;
66425;SDS011;53237;46.158;14.604;2023-01-01T02:07:43;24.55;;;17.27;;
66425;SDS011;53237;46.158;14.604;2023-01-01T02:10:09;25.27;;;17.83;;
66425;SDS011;53237;46.158;14.604;2023-01-01T02:12:36;21.65;;;17.20;;
66425;SDS011;53237;46.158;14.604;2023-01-01T02:15:02;32.08;;;26.63;;
66425;SDS011;53237;46.158;14.604;2023-01-01T02:17:37;19.27;;;15.63;;
66425;SDS011;53237;46.158;14.604;2023-01-01T02:25:27;21.55;;;17.02;;
66425;SDS011;53237;46.158;14.604;2023-01-01T02:28:09;23.15;;;17.40;;
66425;SDS011;53237;46.158;14.604;2023-01-01T02:30:40;24.42;;;16.75;;
66425;SDS011;53237;46.158;14.604;2023-01-01T02:33:08;19.30;;;14.95;;
66425;SDS011;53237;46.158;14.604;2023-01-01T02:35:47;19.90;;;16.05;;
66425;SDS011;53237;46.158;14.604;2023-01-01T02:38:14;21.95;;;16.40;;
66425;SDS011;53237;46.158;14.604;2023-01-01T02:40:46;19.90;;;16.55;;
66425;SDS011;53237;46.158;14.604;2023-01-01T02:43:12;21.60;;;16.25;;
66425;SDS011;53237;46.158;14.604;2023-01-01T02:45:38;23.90;;;17.27;;
66425;SDS011;53237;46.158;14.604;2023-01-01T02:48:04;23.90;;;16.63;;
66425;SDS011;53237;46.158;14.604;2023-01-01T02:50:30;21.00;;;14.38;;
66425;SDS011;53237;46.158;14.604;2023-01-01T03:01:17;20.73;;;16.27;;
66425;SDS011;53237;46.158;14.604;2023-01-01T03:04:00;17.00;;;14.23;;
66425;SDS011;53237;46.158;14.604;2023-01-01T03:06:33;17.77;;;14.73;;
66425;SDS011;53237;46.158;14.604;2023-01-01T03:09:12;19.38;;;14.00;;
66425;SDS011;53237;46.158;14.604;2023-01-01T03:14:10;17.83;;;14.32;;
66425;SDS011;53237;46.158;14.604;2023-01-01T03:19:20;19.52;;;15.40;;
66425;SDS011;53237;46.158;14.604;2023-01-01T03:22:06;17.35;;;13.32;;
66425;SDS011;53237;46.158;14.604;2023-01-01T03:24:35;18.48;;;13.65;;
66425;SDS011;53237;46.158;14.604;2023-01-01T03:27:21;20.52;;;15.25;;
66425;SDS011;53237;46.158;14.604;2023-01-01T03:29:50;18.55;;;14.88;;
66425;SDS011;53237;46.158;14.604;2023-01-01T03:32:18;19.27;;;15.70;;
66425;SDS011;53237;46.158;14.604;2023-01-01T03:34:48;17.17;;;13.77;;
66425;SDS011;53237;46.158;14.604;2023-01-01T03:37:18;17.92;;;14.35;;
66425;SDS011;53237;46.158;14.604;2023-01-01T03:39:46;16.40;;;11.95;;
66425;SDS011;53237;46.158;14.604;2023-01-01T03:42:18;18.17;;;12.90;;
66425;SDS011;53237;46.158;14.604;2023-01-01T03:44:49;15.93;;;11.73;;
66425;SDS011;53237;46.158;14.604;2023-01-01T03:47:17;14.70;;;11.45;;
66425;SDS011;53237;46.158;14.604;2023-01-01T03:49:44;16.17;;;10.60;;
66425;SDS011;53237;46.158;14.604;2023-01-01T04:00:07;12.70;;;10.27;;
66425;SDS011;53237;46.158;14.604;2023-01-01T04:02:36;13.50;;;10.38;;
66425;SDS011;53237;46.158;14.604;2023-01-01T04:05:04;12.63;;;9.82;;
66425;SDS011;53237;46.158;14.604;2023-01-01T04:07:31;13.88;;;10.10;;
66425;SDS011;53237;46.158;14.604;2023-01-01T04:09:59;15.15;;;11.18;;
66425;SDS011;53237;46.158;14.604;2023-01-01T04:12:25;15.20;;;11.70;;
66425;SDS011;53237;46.158;14.604;2023-01-01T04:14:52;14.02;;;11.00;;
66425;SDS011;53237;46.158;14.604;2023-01-01T04:17:17;14.15;;;11.57;;
66425;SDS011;53237;46.158;14.604;2023-01-01T04:19:43;16.58;;;12.48;;
66425;SDS011;53237;46.158;14.604;2023-01-01T04:22:09;17.10;;;13.73;;
66425;SDS011;53237;46.158;14.604;2023-01-01T04:24:35;17.85;;;13.68;;
66425;SDS011;53237;46.158;14.604;2023-01-01T04:27:01;17.33;;;13.07;;
66425;SDS011;53237;46.158;14.604;2023-01-01T04:29:27;15.90;;;12.63;;
66425;SDS011;53237;46.158;14.604;2023-01-01T04:31:53;17.08;;;11.98;;
66425;SDS011;53237;46.158;14.604;2023-01-01T04:34:19;16.73;;;12.18;;
66425;SDS011;53237;46.158;14.604;2023-01-01T04:36:45;18.15;;;13.13;;
66425;SDS011;53237;46.158;14.604;2023-01-01T04:39:11;18.23;;;12.73;;
66425;SDS011;53237;46.158;14.604;2023-01-01T04:41:37;18.70;;;14.05;;
66425;SDS011;53237;46.158;14.604;2023-01-01T04:44:03;18.40;;;13.80;;
66425;SDS011;53237;46.158;14.604;2023-01-01T04:46:29;19.63;;;14.30;;
66425;SDS011;53237;46.158;14.604;2023-01-01T04:48:55;17.73;;;13.07;;
66425;SDS011;53237;46.158;14.604;2023-01-01T04:51:21;14.50;;;12.25;;
66425;SDS011;53237;46.158;14.604;2023-01-01T04:53:47;14.82;;;10.90;;
66425;SDS011;53237;46.158;14.604;2023-01-01T04:56:15;20.42;;;15.32;;
66425;SDS011;53237;46.158;14.604;2023-01-01T04:58:41;14.10;;;10.77;;
66425;SDS011;53237;46.158;14.604;2023-01-01T05:01:08;19.80;;;16.35;;
66425;SDS011;53237;46.158;14.604;2023-01-01T05:03:38;26.13;;;18.50;;
66425;SDS011;53237;46.158;14.604;2023-01-01T05:06:06;21.67;;;16.13;;
66425;SDS011;53237;46.158;14.604;2023-01-01T05:08:33;17.60;;;13.13;;
66425;SDS011;53237;46.158;14.604;2023-01-01T05:11:03;25.42;;;16.95;;
66425;SDS011;53237;46.158;14.604;2023-01-01T05:13:29;23.33;;;14.40;;
66425;SDS011;53237;46.158;14.604;2023-01-01T05:15:55;19.38;;;14.90;;
66425;SDS011;53237;46.158;14.604;2023-01-01T05:18:21;21.80;;;14.23;;
66425;SDS011;53237;46.158;14.604;2023-01-01T05:20:47;16.13;;;11.80;;
66425;SDS011;53237;46.158;14.604;2023-01-01T05:23:16;16.58;;;13.07;;
66425;SDS011;53237;46.158;14.604;2023-01-01T05:25:42;15.27;;;11.93;;
66425;SDS011;53237;46.158;14.604;2023-01-01T05:28:08;12.82;;;10.43;;
66425;SDS011;53237;46.158;14.604;2023-01-01T05:30:37;16.98;;;13.98;;
66425;SDS011;53237;46.158;14.604;2023-01-01T05:33:04;16.92;;;12.75;;
66425;SDS011;53237;46.158;14.604;2023-01-01T05:35:30;13.55;;;9.80;;
66425;SDS011;53237;46.158;14.604;2023-01-01T05:37:56;11.65;;;8.35;;
66425;SDS011;53237;46.158;14.604;2023-01-01T05:40:22;13.43;;;10.40;;
66425;SDS011;53237;46.158;14.604;2023-01-01T05:42:48;10.32;;;7.78;;
66425;SDS011;53237;46.158;14.604;2023-01-01T05:45:14;9.65;;;8.15;;
66425;SDS011;53237;46.158;14.604;2023-01-01T05:47:40;13.13;;;10.23;;
66425;SDS011;53237;46.158;14.604;2023-01-01T05:50:06;13.48;;;10.02;;
66425;SDS011;53237;46.158;14.604;2023-01-01T05:52:32;10.75;;;9.10;;
66425;SDS011;53237;46.158;14.604;2023-01-01T05:54:58;11.52;;;8.57;;
66425;SDS011;53237;46.158;14.604;2023-01-01T05:57:26;9.98;;;7.78;;
66425;SDS011;53237;46.158;14.604;2023-01-01T05:59:53;8.65;;;7.07;;
66425;SDS011;53237;46.158;14.604;2023-01-01T06:02:19;8.38;;;6.30;;
66425;SDS011;53237;46.158;14.604;2023-01-01T06:04:45;9.32;;;6.10;;
66425;SDS011;53237;46.158;14.604;2023-01-01T06:07:11;7.53;;;6.15;;
66425;SDS011;53237;46.158;14.604;2023-01-01T06:09:37;7.57;;;6.75;;
66425;SDS011;53237;46.158;14.604;2023-01-01T06:12:03;9.02;;;6.75;;
66425;SDS011;53237;46.158;14.604;2023-01-01T06:14:29;9.07;;;6.80;;
66425;SDS011;53237;46.158;14.604;2023-01-01T06:16:55;9.02;;;6.70;;
66425;SDS011;53237;46.158;14.604;2023-01-01T06:19:21;7.90;;;6.28;;
66425;SDS011;53237;46.158;14.604;2023-01-01T06:21:47;8.45;;;6.68;;
66425;SDS011;53237;46.158;14.604;2023-01-01T06:24:13;9.52;;;6.72;;
66425;SDS011;53237;46.158;14.604;2023-01-01T06:26:39;7.10;;;5.80;;
66425;SDS011;53237;46.158;14.604;2023-01-01T06:29:04;8.43;;;6.13;;
66425;SDS011;53237;46.158;14.604;2023-01-01T06:31:30;6.63;;;5.97;;
66425;SDS011;53237;46.158;14.604;2023-01-01T06:33:56;7.50;;;6.00;;
66425;SDS011;53237;46.158;14.604;2023-01-01T06:36:23;9.85;;;6.05;;
66425;SDS011;53237;46.158;14.604;2023-01-01T06:38:51;7.70;;;6.07;;
66425;SDS011;53237;46.158;14.604;2023-01-01T06:41:18;8.77;;;6.90;;
66425;SDS011;53237;46.158;14.604;2023-01-01T06:43:44;12.43;;;8.50;;
66425;SDS011;53237;46.158;14.604;2023-01-01T06:46:30;12.88;;;10.30;;
66425;SDS011;53237;46.158;14.604;2023-01-01T06:48:57;13.65;;;10.57;;
66425;SDS011;53237;46.158;14.604;2023-01-01T06:51:30;10.07;;;8.38;;
66425;SDS011;53237;46.158;14.604;2023-01-01T06:53:57;10.05;;;7.85;;
66425;SDS011;53237;46.158;14.604;2023-01-01T06:56:23;11.82;;;8.98;;
66425;SDS011;53237;46.158;14.604;2023-01-01T06:58:49;8.63;;;5.95;;
66425;SDS011;53237;46.158;14.604;2023-01-01T07:01:19;9.38;;;7.13;;
66425;SDS011;53237;46.158;14.604;2023-01-01T07:06:18;17.38;;;12.27;;
66425;SDS011;53237;46.158;14.604;2023-01-01T07:08:44;13.65;;;9.90;;
66425;SDS011;53237;46.158;14.604;2023-01-01T07:11:10;7.55;;;6.78;;
66425;SDS011;53237;46.158;14.604;2023-01-01T07:13:36;14.13;;;11.23;;
66425;SDS011;53237;46.158;14.604;2023-01-01T07:16:02;14.45;;;11.50;;
66425;SDS011;53237;46.158;14.604;2023-01-01T07:18:28;18.35;;;12.00;;
66425;SDS011;53237;46.158;14.604;2023-01-01T07:20:55;18.00;;;14.48;;
66425;SDS011;53237;46.158;14.604;2023-01-01T07:23:21;15.73;;;11.32;;
66425;SDS011;53237;46.158;14.604;2023-01-01T07:25:48;17.63;;;10.90;;
66425;SDS011;53237;46.158;14.604;2023-01-01T07:28:14;13.25;;;10.32;;
66425;SDS011;53237;46.158;14.604;2023-01-01T07:30:40;18.60;;;11.48;;
66425;SDS011;53237;46.158;14.604;2023-01-01T07:33:09;18.42;;;12.40;;
66425;SDS011;53237;46.158;14.604;2023-01-01T07:35:36;16.13;;;12.73;;
66425;SDS011;53237;46.158;14.604;2023-01-01T07:38:01;43.17;;;29.08;;
66425;SDS011;53237;46.158;14.604;2023-01-01T07:40:27;34.33;;;22.98;;
66425;SDS011;53237;46.158;14.604;2023-01-01T07:42:53;21.52;;;17.45;;
66425;SDS011;53237;46.158;14.604;2023-01-01T07:45:19;20.58;;;14.88;;
66425;SDS011;53237;46.158;14.604;2023-01-01T07:47:49;20.80;;;15.32;;
66425;SDS011;53237;46.158;14.604;2023-01-01T07:50:16;19.90;;;15.38;;
66425;SDS011;53237;46.158;14.604;2023-01-01T07:52:42;15.48;;;12.50;;
66425;SDS011;53237;46.158;14.604;2023-01-01T07:55:11;20.08;;;15.05;;
66425;SDS011;53237;46.158;14.604;2023-01-01T07:57:38;15.48;;;13.35;;
66425;SDS011;53237;46.158;14.604;2023-01-01T08:00:04;19.83;;;14.25;;
66425;SDS011;53237;46.158;14.604;2023-01-01T08:02:30;23.35;;;18.23;;
66425;SDS011;53237;46.158;14.604;2023-01-01T08:04:57;26.85;;;20.10;;
66425;SDS011;53237;46.158;14.604;2023-01-01T08:07:22;36.45;;;29.42;;
66425;SDS011;53237;46.158;14.604;2023-01-01T08:09:48;45.00;;;34.47;;
66425;SDS011;53237;46.158;14.604;2023-01-01T08:12:14;62.25;;;48.83;;
66425;SDS011;53237;46.158;14.604;2023-01-01T08:14:40;29.50;;;22.08;;
66425;SDS011;53237;46.158;14.604;2023-01-01T08:17:06;19.17;;;14.02;;
66425;SDS011;53237;46.158;14.604;2023-01-01T08:19:32;17.88;;;13.10;;
66425;SDS011;53237;46.158;14.604;2023-01-01T08:21:58;12.63;;;9.60;;
66425;SDS011;53237;46.158;14.604;2023-01-01T08:24:24;15.82;;;10.30;;
66425;SDS011;53237;46.158;14.604;2023-01-01T08:26:50;15.05;;;11.23;;
66425;SDS011;53237;46.158;14.604;2023-01-01T08:29:16;13.98;;;10.60;;
66425;SDS011;53237;46.158;14.604;2023-01-01T08:31:42;17.25;;;13.02;;
66425;SDS011;53237;46.158;14.604;2023-01-01T08:34:08;14.55;;;12.15;;
66425;SDS011;53237;46.158;14.604;2023-01-01T08:36:35;15.75;;;12.90;;
66425;SDS011;53237;46.158;14.604;2023-01-01T08:39:01;19.45;;;15.98;;
66425;SDS011;53237;46.158;14.604;2023-01-01T08:41:27;21.50;;;17.70;;
66425;SDS011;53237;46.158;14.604;2023-01-01T08:43:53;25.75;;;19.45;;
66425;SDS011;53237;46.158;14.604;2023-01-01T08:46:19;26.95;;;18.60;;
66425;SDS011;53237;46.158;14.604;2023-01-01T08:48:45;20.40;;;14.18;;
66425;SDS011;53237;46.158;14.604;2023-01-01T08:51:11;25.67;;;18.35;;
66425;SDS011;53237;46.158;14.604;2023-01-01T08:53:37;20.48;;;15.20;;
66425;SDS011;53237;46.158;14.604;2023-01-01T08:56:04;14.98;;;12.73;;
66425;SDS011;53237;46.158;14.604;2023-01-01T08:58:31;19.42;;;16.75;;
66425;SDS011;53237;46.158;14.604;2023-01-01T09:00:58;45.42;;;32.60;;
66425;SDS011;53237;46.158;14.604;2023-01-01T09:03:24;33.35;;;24.25;;
66425;SDS011;53237;46.158;14.604;2023-01-01T09:05:50;28.42;;;22.88;;
66425;SDS011;53237;46.158;14.604;2023-01-01T09:08:16;23.27;;;17.27;;
66425;SDS011;53237;46.158;14.604;2023-01-01T09:10:42;37.08;;;29.38;;
66425;SDS011;53237;46.158;14.604;2023-01-01T09:13:09;47.28;;;37.08;;
66425;SDS011;53237;46.158;14.604;2023-01-01T09:15:35;23.10;;;18.55;;
66425;SDS011;53237;46.158;14.604;2023-01-01T09:18:01;21.63;;;16.98;;
66425;SDS011;53237;46.158;14.604;2023-01-01T09:20:27;26.92;;;20.35;;
66425;SDS011;53237;46.158;14.604;2023-01-01T09:22:54;28.27;;;23.42;;
66425;SDS011;53237;46.158;14.604;2023-01-01T09:25:20;32.30;;;26.70;;
66425;SDS011;53237;46.158;14.604;2023-01-01T09:27:46;23.80;;;19.30;;
66425;SDS011;53237;46.158;14.604;2023-01-01T09:30:12;21.17;;;14.98;;
66425;SDS011;53237;46.158;14.604;2023-01-01T09:32:38;17.25;;;12.20;;
66425;SDS011;53237;46.158;14.604;2023-01-01T09:35:05;21.95;;;19.08;;
66425;SDS011;53237;46.158;14.604;2023-01-01T09:37:31;21.70;;;19.30;;
66425;SDS011;53237;46.158;14.604;2023-01-01T09:39:58;23.33;;;18.92;;
66425;SDS011;53237;46.158;14.604;2023-01-01T09:47:28;11.57;;;8.30;;
66425;SDS011;53237;46.158;14.604;2023-01-01T09:49:57;9.45;;;7.63;;
66425;SDS011;53237;46.158;14.604;2023-01-01T09:52:27;15.40;;;11.45;;
66425;SDS011;53237;46.158;14.604;2023-01-01T09:54:56;11.50;;;8.35;;
66425;SDS011;53237;46.158;14.604;2023-01-01T09:57:24;26.38;;;10.27;;
66425;SDS011;53237;46.158;14.604;2023-01-01T09:59:53;16.33;;;9.10;;
66425;SDS011;53237;46.158;14.604;2023-01-01T10:08:38;8.35;;;6.88;;
66425;SDS011;53237;46.158;14.604;2023-01-01T10:10:46;14.77;;;5.63;;
66425;SDS011;53237;46.158;14.604;2023-01-01T10:16:26;9.93;;;6.38;;
66425;SDS011;53237;46.158;14.604;2023-01-01T10:18:55;9.13;;;6.03;;
66425;SDS011;53237;46.158;14.604;2023-01-01T10:21:26;8.90;;;5.60;;
66425;SDS011;53237;46.158;14.604;2023-01-01T10:23:55;7.93;;;4.75;;
66425;SDS011;53237;46.158;14.604;2023-01-01T10:26:24;7.95;;;5.80;;
66425;SDS011;53237;46.158;14.604;2023-01-01T10:28:53;6.60;;;4.60;;
66425;SDS011;53237;46.158;14.604;2023-01-01T10:33:54;4.97;;;3.75;;
66425;SDS011;53237;46.158;14.604;2023-01-01T10:36:20;4.32;;;3.55;;
66425;SDS011;53237;46.158;14.604;2023-01-01T10:38:47;4.93;;;3.60;;
66425;SDS011;53237;46.158;14.604;2023-01-01T10:41:13;5.25;;;3.72;;
66425;SDS011;53237;46.158;14.604;2023-01-01T10:43:40;4.82;;;3.42;;
66425;SDS011;53237;46.158;14.604;2023-01-01T10:46:08;4.10;;;3.60;;
66425;SDS011;53237;46.158;14.604;2023-01-01T10:48:35;4.25;;;3.17;;
66425;SDS011;53237;46.158;14.604;2023-01-01T10:51:02;5.07;;;3.60;;
66425;SDS011;53237;46.158;14.604;2023-01-01T10:58:24;5.35;;;3.50;;
66425;SDS011;53237;46.158;14.604;2023-01-01T11:00:57;3.85;;;3.38;;
66425;SDS011;53237;46.158;14.604;2023-01-01T11:03:23;4.18;;;3.75;;
66425;SDS011;53237;46.158;14.604;2023-01-01T11:06:14;4.35;;;3.10;;
66425;SDS011;53237;46.158;14.604;2023-01-01T11:08:46;4.13;;;3.45;;
66425;SDS011;53237;46.158;14.604;2023-01-01T11:11:19;5.95;;;3.05;;
66425;SDS011;53237;46.158;14.604;2023-01-01T11:13:48;7.00;;;4.78;;
66425;SDS011;53237;46.158;14.604;2023-01-01T11:16:15;6.78;;;5.68;;
66425;SDS011;53237;46.158;14.604;2023-01-01T11:18:41;6.13;;;4.57;;
66425;SDS011;53237;46.158;14.604;2023-01-01T11:21:07;4.20;;;3.75;;
66425;SDS011;53237;46.158;14.604;2023-01-01T11:26:04;4.50;;;3.40;;
66425;SDS011;53237;46.158;14.604;2023-01-01T11:28:31;3.63;;;3.13;;
66425;SDS011;53237;46.158;14.604;2023-01-01T11:33:25;3.88;;;2.90;;
66425;SDS011;53237;46.158;14.604;2023-01-01T11:35:53;4.65;;;3.53;;
66425;SDS011;53237;46.158;14.604;2023-01-01T11:38:20;3.58;;;3.08;;
66425;SDS011;53237;46.158;14.604;2023-01-01T11:40:47;3.00;;;2.70;;
66425;SDS011;53237;46.158;14.604;2023-01-01T11:43:23;3.63;;;3.20;;
66425;SDS011;53237;46.158;14.604;2023-01-01T11:45:52;3.88;;;2.80;;
66425;SDS011;53237;46.158;14.604;2023-01-01T11:48:20;3.90;;;2.97;;
66425;SDS011;53237;46.158;14.604;2023-01-01T11:50:52;5.00;;;3.13;;
66425;SDS011;53237;46.158;14.604;2023-01-01T11:55:45;3.63;;;3.17;;
66425;SDS011;53237;46.158;14.604;2023-01-01T12:00:38;3.95;;;3.38;;
66425;SDS011;53237;46.158;14.604;2023-01-01T12:03:23;3.47;;;3.17;;
66425;SDS011;53237;46.158;14.604;2023-01-01T12:08:27;5.45;;;4.38;;
66425;SDS011;53237;46.158;14.604;2023-01-01T12:11:06;7.10;;;4.20;;
66425;SDS011;53237;46.158;14.604;2023-01-01T12:13:36;4.78;;;4.10;;
66425;SDS011;53237;46.158;14.604;2023-01-01T12:18:34;6.10;;;4.28;;
66425;SDS011;53237;46.158;14.604;2023-01-01T12:23:40;14.10;;;7.93;;
66425;SDS011;53237;46.158;14.604;2023-01-01T12:26:23;7.15;;;4.47;;
66425;SDS011;53237;46.158;14.604;2023-01-01T12:34:14;6.53;;;4.35;;
66425;SDS011;53237;46.158;14.604;2023-01-01T12:42:10;5.47;;;4.13;;
66425;SDS011;53237;46.158;14.604;2023-01-01T12:44:44;5.65;;;4.50;;
66425;SDS011;53237;46.158;14.604;2023-01-01T12:47:21;6.28;;;4.05;;
66425;SDS011;53237;46.158;14.604;2023-01-01T12:50:15;5.60;;;4.38;;
66425;SDS011;53237;46.158;14.604;2023-01-01T12:52:48;7.60;;;4.65;;
66425;SDS011;53237;46.158;14.604;2023-01-01T12:55:22;7.57;;;5.28;;
66425;SDS011;53237;46.158;14.604;2023-01-01T13:00:19;5.60;;;4.80;;
66425;SDS011;53237;46.158;14.604;2023-01-01T13:02:47;7.93;;;5.50;;
66425;SDS011;53237;46.158;14.604;2023-01-01T13:05:47;7.20;;;6.18;;
66425;SDS011;53237;46.158;14.604;2023-01-01T13:08:06;6.55;;;5.88;;
66425;SDS011;53237;46.158;14.604;2023-01-01T13:13:01;6.20;;;5.20;;
66425;SDS011;53237;46.158;14.604;2023-01-01T13:20:44;6.15;;;5.13;;
66425;SDS011;53237;46.158;14.604;2023-01-01T13:28:40;7.43;;;5.60;;
66425;SDS011;53237;46.158;14.604;2023-01-01T13:31:06;8.30;;;5.88;;
66425;SDS011;53237;46.158;14.604;2023-01-01T13:33:32;7.35;;;5.40;;
66425;SDS011;53237;46.158;14.604;2023-01-01T13:40:58;8.55;;;6.63;;
66425;SDS011;53237;46.158;14.604;2023-01-01T13:43:25;6.25;;;4.72;;
66425;SDS011;53237;46.158;14.604;2023-01-01T13:45:51;9.20;;;6.20;;
66425;SDS011;53237;46.158;14.604;2023-01-01T13:48:29;6.18;;;5.13;;
66425;SDS011;53237;46.158;14.604;2023-01-01T14:04:04;10.48;;;8.30;;
66425;SDS011;53237;46.158;14.604;2023-01-01T14:06:35;9.48;;;8.32;;
66425;SDS011;53237;46.158;14.604;2023-01-01T14:11:28;7.45;;;6.65;;
66425;SDS011;53237;46.158;14.604;2023-01-01T14:13:54;8.80;;;7.60;;
66425;SDS011;53237;46.158;14.604;2023-01-01T14:16:20;9.05;;;7.45;;
66425;SDS011;53237;46.158;14.604;2023-01-01T14:18:49;9.50;;;8.00;;
66425;SDS011;53237;46.158;14.604;2023-01-01T14:21:20;7.72;;;6.72;;
66425;SDS011;53237;46.158;14.604;2023-01-01T14:23:50;8.90;;;7.43;;
66425;SDS011;53237;46.158;14.604;2023-01-01T14:26:17;9.85;;;8.80;;
66425;SDS011;53237;46.158;14.604;2023-01-01T14:28:44;9.32;;;8.20;;
66425;SDS011;53237;46.158;14.604;2023-01-01T14:31:20;6.82;;;5.45;;
66425;SDS011;53237;46.158;14.604;2023-01-01T14:33:47;6.30;;;5.60;;
66425;SDS011;53237;46.158;14.604;2023-01-01T14:36:14;6.47;;;5.72;;
66425;SDS011;53237;46.158;14.604;2023-01-01T14:38:42;6.28;;;5.68;;
66425;SDS011;53237;46.158;14.604;2023-01-01T14:41:18;9.15;;;7.72;;
66425;SDS011;53237;46.158;14.604;2023-01-01T14:43:45;6.07;;;5.22;;
66425;SDS011;53237;46.158;14.604;2023-01-01T14:46:13;6.20;;;5.60;;
66425;SDS011;53237;46.158;14.604;2023-01-01T14:48:41;6.13;;;5.50;;
66425;SDS011;53237;46.158;14.604;2023-01-01T14:51:09;9.90;;;6.57;;
66425;SDS011;53237;46.158;14.604;2023-01-01T14:53:36;6.07;;;5.47;;
66425;SDS011;53237;46.158;14.604;2023-01-01T14:56:02;6.80;;;5.53;;
66425;SDS011;53237;46.158;14.604;2023-01-01T14:58:31;8.55;;;6.78;;
66425;SDS011;53237;46.158;14.604;2023-01-01T15:01:13;6.53;;;5.30;;
66425;SDS011;53237;46.158;14.604;2023-01-01T15:06:12;6.05;;;5.45;;
66425;SDS011;53237;46.158;14.604;2023-01-01T15:08:40;7.00;;;5.38;;
66425;SDS011;53237;46.158;14.604;2023-01-01T15:11:06;6.28;;;5.10;;
66425;SDS011;53237;46.158;14.604;2023-01-01T15:13:32;7.03;;;6.10;;
66425;SDS011;53237;46.158;14.604;2023-01-01T15:16:15;8.18;;;6.82;;
66425;SDS011;53237;46.158;14.604;2023-01-01T15:18:47;7.25;;;6.15;;
66425;SDS011;53237;46.158;14.604;2023-01-01T15:23:53;8.38;;;6.75;;
66425;SDS011;53237;46.158;14.604;2023-01-01T15:26:27;7.10;;;6.35;;
66425;SDS011;53237;46.158;14.604;2023-01-01T15:28:54;7.10;;;6.28;;
66425;SDS011;53237;46.158;14.604;2023-01-01T15:31:21;8.65;;;6.90;;
66425;SDS011;53237;46.158;14.604;2023-01-01T15:33:47;10.05;;;7.22;;
66425;SDS011;53237;46.158;14.604;2023-01-01T15:36:13;9.57;;;7.90;;
66425;SDS011;53237;46.158;14.604;2023-01-01T15:38:40;9.38;;;7.95;;
66425;SDS011;53237;46.158;14.604;2023-01-01T15:41:23;9.23;;;7.35;;
66425;SDS011;53237;46.158;14.604;2023-01-01T15:43:50;18.55;;;14.68;;
66425;SDS011;53237;46.158;14.604;2023-01-01T15:46:18;16.25;;;13.23;;
66425;SDS011;53237;46.158;14.604;2023-01-01T15:48:45;12.07;;;8.95;;
66425;SDS011;53237;46.158;14.604;2023-01-01T15:51:13;10.55;;;8.80;;
66425;SDS011;53237;46.158;14.604;2023-01-01T15:54:01;10.25;;;8.00;;
66425;SDS011;53237;46.158;14.604;2023-01-01T15:56:27;10.07;;;8.95;;
66425;SDS011;53237;46.158;14.604;2023-01-01T15:58:59;12.60;;;9.35;;
66425;SDS011;53237;46.158;14.604;2023-01-01T16:01:26;12.15;;;9.50;;
66425;SDS011;53237;46.158;14.604;2023-01-01T16:03:59;18.40;;;14.77;;
66425;SDS011;53237;46.158;14.604;2023-01-01T16:06:25;26.40;;;20.83;;
66425;SDS011;53237;46.158;14.604;2023-01-01T16:08:52;20.13;;;15.20;;
66425;SDS011;53237;46.158;14.604;2023-01-01T16:11:18;12.48;;;10.40;;
66425;SDS011;53237;46.158;14.604;2023-01-01T16:13:44;10.38;;;8.10;;
66425;SDS011;53237;46.158;14.604;2023-01-01T16:16:26;11.63;;;8.40;;
66425;SDS011;53237;46.158;14.604;2023-01-01T16:18:53;10.52;;;8.52;;
66425;SDS011;53237;46.158;14.604;2023-01-01T16:21:19;10.65;;;8.73;;
66425;SDS011;53237;46.158;14.604;2023-01-01T16:23:45;14.15;;;11.60;;
66425;SDS011;53237;46.158;14.604;2023-01-01T16:26:11;16.15;;;12.07;;
66425;SDS011;53237;46.158;14.604;2023-01-01T16:28:37;15.63;;;10.77;;
66425;SDS011;53237;46.158;14.604;2023-01-01T16:31:03;17.10;;;12.43;;